x

Central Aleutians 230nm Sw Dutch Harbor (46072) Wave Buoy

5:50am - Mon 24th Nov 2014 All times are UTC.

  • Sig Wave height 10.5ft
  • Peak Period 8s
  • Average Period 7s
  • Wind
    16mph, 18mph gusts
  • Sea Temp 44°f
  • 空気 Temp 39°f
  • Sea Pressure 1010.2mb

More Historic Weather Station data

Upgrade to MSW Pro to gain access to the past 30 days of data for over 8000 Wavebouys and Weather Stations around the globe.

Join Pro

Comparision Forecast

View Surf forecast
   
Mon 11/24 5:50am 10.5ft 8s 7s 16 18 mph 1010.2mb 44f 39f
4:50am 10ft 8s 7s 13 16 mph 1009.2mb 44f 39f
3:50am 10ft 9s 7s 22 31 mph 1008.8mb 44f 39f
2:50am 11ft 9s 7s 25 31 mph 1007.8mb 44f 39f
1:50am 10.5ft 8s 6s 20 25 mph 1006.8mb 44f 41f
12:50am 11ft 8s 6s 22 27 mph 1006.5mb 44f 40f
Sun 11/23 11:50pm 10.5ft 8s 6s 22 27 mph 1006.1mb 44f 41f
10:50pm 11ft 11s 6s 22 29 mph 1006.2mb 44f 39f
9:50pm 11ft 9s 7s 22 27 mph 1006mb 44f 40f
8:50pm 12ft 9s 7s 25 29 mph 1005.2mb 44f 41f
7:50pm 12.5ft 11s 7s 22 29 mph 1004.3mb 44f 40f
6:50pm 12ft 10s 7s 22 27 mph 1003.5mb 44f 40f
5:50pm 11ft 11s 7s 25 31 mph 1002.8mb 44f 38f
4:50pm 11ft 11s 7s 27 34 mph 1002.3mb 44f 39f
3:50pm 11ft 11s 7s 25 31 mph 1001.7mb 44f 40f
2:50pm 11ft 9s 7s 27 31 mph 1001.2mb 44f 40f
1:50pm 11ft 10s 7s 22 29 mph 1000.8mb 44f 40f
12:50pm 10ft 8s 7s 25 34 mph 1000.2mb 44f 40f
11:50am 11ft 9s 7s 22 27 mph 999.9mb 44f 41f
10:50am 12.5ft 10s 7s 25 29 mph 999.3mb 44f 41f
9:50am 11ft 11s 7s 27 34 mph 998.8mb 44f 41f
8:50am 13.5ft 11s 7s 25 29 mph 998.2mb 44f 40f
7:50am 12.5ft 11s 7s 25 31 mph 997.4mb 44f 41f
6:50am 11.5ft 10s 7s 25 31 mph 997mb 44f 40f
5:50am 11.5ft 10s 7s 27 36 mph 996.4mb 44f 40f
4:50am 12ft 11s 7s 27 31 mph 995.8mb 44f 41f
3:50am 12ft 11s 7s 27 34 mph 995.2mb 44f 41f
2:50am 11.5ft 11s 7s 29 38 mph 994.3mb 44f 41f
1:50am 11ft 10s 6s 27 34 mph 993.7mb 44f 42f
12:50am 11ft 11s 6s 34 40 mph 993.1mb 44f 40f
Sat 11/22 11:50pm 11ft 10s 6s 27 34 mph 992.6mb 44f 42f
10:50pm 11ft 11s 6s 27 34 mph 992.5mb 44f 42f
9:50pm 11.5ft 10s 7s 27 31 mph 992.2mb 44f 42f
8:50pm 12.5ft 9s 7s 27 34 mph 991.4mb 44f 42f
7:50pm 12.5ft 11s 7s 25 31 mph 990.5mb 44f 42f
6:50pm 11ft 11s 7s 25 29 mph 989.6mb 44f 42f
5:50pm 12.5ft 11s 8s 25 29 mph 988.7mb 44f 42f
4:50pm 11ft 10s 7s 22 29 mph 987.8mb 44f 42f
3:50pm 9.5ft 10s 7s 22 29 mph 987mb 44f 42f
2:50pm 10ft 11s 7s 25 29 mph 986.3mb 44f 43f
1:50pm 11ft 10s 7s 22 27 mph 985.6mb 44f 43f
12:50pm 12ft 10s 7s 27 31 mph 984.8mb 44f 42f
11:50am 11.5ft 10s 7s 25 31 mph 984.6mb 44f 42f
10:50am 12ft 7s 7s 25 29 mph 984.2mb 44f 42f
9:50am 11ft 9s 7s 22 27 mph 984mb 44f 42f
8:50am 12ft 9s 7s 25 29 mph 983.6mb 44f 41f
7:50am 12ft 7s 7s 25 31 mph 983.1mb 44f 42f
6:50am 13ft 9s 7s 25 29 mph 982.7mb 44f 42f
5:50am 12ft 8s 7s 25 31 mph 982.6mb 44f 42f
4:50am 11ft 8s 7s 25 31 mph 982.4mb 44f 41f
3:50am 11ft 7s 7s 27 34 mph 982.2mb 44f 41f
2:50am 10ft 7s 6s 25 34 mph 982.1mb 44f 41f
1:50am 10ft 11s 6s 31 36 mph 981.6mb 44f 41f
12:50am 8.5ft 11s 6s 27 31 mph 981.6mb 44f 40f
Fri 11/21 11:50pm 9ft 11s 6s 25 29 mph 981.5mb 44f 40f
10:50pm 8.5ft 11s 6s 20 27 mph 981.7mb 44f 41f
9:50pm 9ft 11s 6s 25 29 mph 981.7mb 44f 42f
8:50pm 9ft 11s 7s 18 25 mph 981.5mb 44f 42f
7:50pm 8.5ft 9s 7s 18 22 mph 981.2mb 44f 41f
6:50pm 10ft 11s 7s 20 25 mph 980.8mb 44f 41f
5:50pm 9.5ft 11s 8s 16 20 mph 980.5mb 44f 41f
4:50pm 9ft 11s 8s 16 20 mph 980.2mb 44f 41f
3:50pm 8ft 11s 8s 16 18 mph 980.1mb 44f 42f
2:50pm 9.5ft 11s 8s 11 16 mph 980.1mb 44f 41f
1:50pm 9ft 11s 8s 11 16 mph 980.1mb 44f 41f
12:50pm 10ft 11s 8s 11 16 mph 979.6mb 44f 41f
11:50am 10.5ft 11s 8s 11 18 mph 979.5mb 44f 41f
10:50am 11ft 11s 8s 11 20 mph 979.1mb 44f 41f
9:50am 11.5ft 11s 8s 9 11 mph 978.9mb 44f 40f
8:50am 11.5ft 11s 9s 9 13 mph 978.4mb 44f 41f
7:50am 11ft 11s 8s 11 16 mph 978.1mb 44f 40f
6:50am 11.5ft 11s 9s  -  4 mph 978mb 44f 40f
5:50am 9.5ft 11s 8s 4 7 mph 977.8mb 44f 40f
4:50am 9ft 10s 8s 4 7 mph 977.5mb 44f 40f
3:50am 10ft 11s 9s 7 9 mph 977.3mb 44f 40f
2:50am 8.5ft 10s 8s 4 7 mph 977mb 44f 40f
1:50am 9ft 11s 8s 4 11 mph 976.8mb 44f 40f
12:50am 9.5ft 10s 8s 9 11 mph 976.6mb 44f 42f
Thu 11/20 11:50pm 8ft 8s 8s 9 11 mph 976.7mb 44f 42f
10:50pm 9ft 10s 8s 9 11 mph 976.7mb 44f 41f
9:50pm 9ft 10s 7s 9 11 mph 976.9mb 44f 42f
8:50pm 8ft 10s 7s 7 11 mph 976.7mb 44f 41f
7:50pm 9ft 10s 7s 7 11 mph 976.3mb 44f 40f
6:50pm 8ft 9s 7s 7 9 mph 975.9mb 44f 39f
5:50pm 9ft 10s 7s 11 16 mph 975.6mb 44f 39f
4:50pm 8ft 10s 7s 9 11 mph 975.3mb 44f 40f
3:50pm 8ft 9s 7s 9 13 mph 975.3mb 44f 40f
2:50pm 8ft 10s 7s 16 18 mph 975.2mb 44f 40f
1:50pm 8ft 10s 7s 11 16 mph 975.2mb 44f 42f
12:50pm 8.5ft 11s 7s 13 18 mph 975mb 44f 42f
11:50am 9ft 11s 7s 13 18 mph 974.9mb 44f 42f
10:50am 9.5ft 10s 7s 16 20 mph 974.9mb 44f 42f
9:50am 10ft 11s 7s 16 18 mph 974.7mb 44f 42f
8:50am 10ft 10s 7s 16 20 mph 974.6mb 44f 42f
7:50am 13ft 10s 8s 16 20 mph 974.5mb 44f 42f